Dallas, Texas
Traffic Map
Current Weather Conditions
Dallas, Texas
Few Clouds
Few Clouds

Feels Like: 4°
Wind Chill: Ceiling: Unl
Heat Index: Visibility: 10mi
Dew Point: -1° Wind: 6mph
Humidity: 65% Direction: 90° (E)
Pressure: 30.44in Gusts: 0mph
Raw Report DataKDAL 011253Z 09005KT 10SM FEW210 06/M01 A3044 RMK AO2 SLP305 T00561006
Traffic Incident Summary
Active as of:
Severity:
Category:
InformationThere was an issue retrieving the traffic information for this location. Please try a different location or try again shortly.
Advertisements
Track Severe Weather on mobile